sensor_id;sensor_type;location;lat;lon;timestamp;pressure;altitude;pressure_sealevel;temperature;humidity
64340;BME280;50674;53.290;-9.080;2022-08-05T00:00:03;102438.69;;;16.22;71.88
64340;BME280;50674;53.290;-9.080;2022-08-05T00:02:28;102443.31;;;16.20;71.71
64340;BME280;50674;53.290;-9.080;2022-08-05T00:04:54;102438.91;;;16.19;73.03
64340;BME280;50674;53.290;-9.080;2022-08-05T00:07:19;102442.44;;;16.19;72.47
64340;BME280;50674;53.290;-9.080;2022-08-05T00:09:45;102448.94;;;16.17;72.35
64340;BME280;50674;53.290;-9.080;2022-08-05T00:12:10;102439.13;;;16.16;72.90
64340;BME280;50674;53.290;-9.080;2022-08-05T00:14:35;102436.53;;;16.14;73.56
64340;BME280;50674;53.290;-9.080;2022-08-05T00:17:01;102435.56;;;16.15;73.41
64340;BME280;50674;53.290;-9.080;2022-08-05T00:19:26;102436.63;;;16.13;73.69
64340;BME280;50674;53.290;-9.080;2022-08-05T00:21:51;102431.50;;;16.10;73.05
64340;BME280;50674;53.290;-9.080;2022-08-05T00:24:17;102440.88;;;16.04;73.09
64340;BME280;50674;53.290;-9.080;2022-08-05T00:26:42;102442.72;;;16.04;73.38
64340;BME280;50674;53.290;-9.080;2022-08-05T00:29:07;102446.59;;;16.00;74.51
64340;BME280;50674;53.290;-9.080;2022-08-05T00:31:33;102451.56;;;15.93;73.89
64340;BME280;50674;53.290;-9.080;2022-08-05T00:33:58;102447.56;;;15.86;74.16
64340;BME280;50674;53.290;-9.080;2022-08-05T00:36:24;102448.13;;;15.78;74.23
64340;BME280;50674;53.290;-9.080;2022-08-05T00:38:50;102443.28;;;15.70;75.11
64340;BME280;50674;53.290;-9.080;2022-08-05T00:41:26;102440.97;;;15.64;76.24
64340;BME280;50674;53.290;-9.080;2022-08-05T00:43:51;102437.66;;;15.61;75.18
64340;BME280;50674;53.290;-9.080;2022-08-05T00:46:17;102437.88;;;15.58;75.45
64340;BME280;50674;53.290;-9.080;2022-08-05T00:48:42;102440.03;;;15.53;75.27
64340;BME280;50674;53.290;-9.080;2022-08-05T00:51:07;102437.25;;;15.54;75.18
64340;BME280;50674;53.290;-9.080;2022-08-05T00:53:33;102439.16;;;15.52;75.69
64340;BME280;50674;53.290;-9.080;2022-08-05T00:55:58;102443.81;;;15.50;75.89
64340;BME280;50674;53.290;-9.080;2022-08-05T00:58:23;102445.72;;;15.48;76.63
64340;BME280;50674;53.290;-9.080;2022-08-05T01:00:49;102441.41;;;15.45;77.37
64340;BME280;50674;53.290;-9.080;2022-08-05T01:03:14;102441.53;;;15.44;77.52
64340;BME280;50674;53.290;-9.080;2022-08-05T01:05:40;102444.22;;;15.44;76.32
64340;BME280;50674;53.290;-9.080;2022-08-05T01:08:05;102444.22;;;15.44;76.76
64340;BME280;50674;53.290;-9.080;2022-08-05T01:10:47;102443.38;;;15.43;76.37
64340;BME280;50674;53.290;-9.080;2022-08-05T01:15:59;102439.81;;;15.43;77.65
64340;BME280;50674;53.290;-9.080;2022-08-05T01:18:28;102439.47;;;15.22;76.77
64340;BME280;50674;53.290;-9.080;2022-08-05T01:29:00;102442.34;;;15.06;78.50
64340;BME280;50674;53.290;-9.080;2022-08-05T01:31:28;102445.13;;;15.05;77.26
64340;BME280;50674;53.290;-9.080;2022-08-05T01:33:59;102442.56;;;15.03;77.78
64340;BME280;50674;53.290;-9.080;2022-08-05T01:36:28;102437.50;;;14.98;80.14
64340;BME280;50674;53.290;-9.080;2022-08-05T01:38:53;102435.88;;;14.96;78.96
64340;BME280;50674;53.290;-9.080;2022-08-05T01:41:19;102439.53;;;14.95;77.58
64340;BME280;50674;53.290;-9.080;2022-08-05T01:43:47;102436.06;;;14.93;77.64
64340;BME280;50674;53.290;-9.080;2022-08-05T01:46:13;102439.06;;;14.88;78.41
64340;BME280;50674;53.290;-9.080;2022-08-05T01:48:39;102442.94;;;14.84;78.01
64340;BME280;50674;53.290;-9.080;2022-08-05T01:51:05;102438.53;;;14.83;78.60
64340;BME280;50674;53.290;-9.080;2022-08-05T01:53:32;102440.31;;;14.83;79.02
64340;BME280;50674;53.290;-9.080;2022-08-05T01:55:59;102437.56;;;14.84;78.91
64340;BME280;50674;53.290;-9.080;2022-08-05T01:58:25;102438.41;;;14.85;78.39
64340;BME280;50674;53.290;-9.080;2022-08-05T02:00:51;102433.03;;;14.85;79.18
64340;BME280;50674;53.290;-9.080;2022-08-05T02:03:26;102433.03;;;14.85;78.10
64340;BME280;50674;53.290;-9.080;2022-08-05T02:05:53;102433.88;;;14.85;78.70
64340;BME280;50674;53.290;-9.080;2022-08-05T02:08:19;102430.22;;;14.86;79.01
64340;BME280;50674;53.290;-9.080;2022-08-05T02:10:47;102431.09;;;14.87;78.96
64340;BME280;50674;53.290;-9.080;2022-08-05T02:13:14;102429.16;;;14.89;79.16
64340;BME280;50674;53.290;-9.080;2022-08-05T02:15:43;102430.03;;;14.89;79.71
64340;BME280;50674;53.290;-9.080;2022-08-05T02:18:10;102437.13;;;14.90;79.05
64340;BME280;50674;53.290;-9.080;2022-08-05T02:23:12;102440.69;;;14.91;78.55
64340;BME280;50674;53.290;-9.080;2022-08-05T02:25:40;102439.72;;;14.92;78.45
64340;BME280;50674;53.290;-9.080;2022-08-05T02:28:07;102451.34;;;14.92;79.73
64340;BME280;50674;53.290;-9.080;2022-08-05T02:30:41;102441.44;;;14.93;78.60
64340;BME280;50674;53.290;-9.080;2022-08-05T02:33:07;102439.72;;;14.92;79.09
64340;BME280;50674;53.290;-9.080;2022-08-05T02:35:34;102432.41;;;14.94;80.54
64340;BME280;50674;53.290;-9.080;2022-08-05T02:38:00;102435.97;;;14.94;80.11
64340;BME280;50674;53.290;-9.080;2022-08-05T02:40:26;102430.28;;;14.99;79.12
64340;BME280;50674;53.290;-9.080;2022-08-05T02:42:51;102433.16;;;14.96;79.42
64340;BME280;50674;53.290;-9.080;2022-08-05T02:45:18;102431.22;;;14.98;79.98
64340;BME280;50674;53.290;-9.080;2022-08-05T02:47:44;102427.94;;;15.07;80.98
64340;BME280;50674;53.290;-9.080;2022-08-05T02:50:10;102426.53;;;15.14;79.32
64340;BME280;50674;53.290;-9.080;2022-08-05T02:52:37;102426.22;;;15.19;80.06
64340;BME280;50674;53.290;-9.080;2022-08-05T02:55:24;102428.59;;;15.23;79.02
64340;BME280;50674;53.290;-9.080;2022-08-05T02:57:51;102424.94;;;15.24;79.03
64340;BME280;50674;53.290;-9.080;2022-08-05T03:00:17;102424.94;;;15.24;79.48
64340;BME280;50674;53.290;-9.080;2022-08-05T03:02:43;102430.34;;;15.24;79.29
64340;BME280;50674;53.290;-9.080;2022-08-05T03:05:10;102419.66;;;15.23;80.03
64340;BME280;50674;53.290;-9.080;2022-08-05T03:07:37;102416.03;;;15.24;79.03
64340;BME280;50674;53.290;-9.080;2022-08-05T03:10:03;102416.97;;;15.23;79.69
64340;BME280;50674;53.290;-9.080;2022-08-05T03:12:35;102411.69;;;15.21;78.81
64340;BME280;50674;53.290;-9.080;2022-08-05T03:15:01;102413.09;;;15.14;79.79
64340;BME280;50674;53.290;-9.080;2022-08-05T03:17:27;102415.78;;;15.14;79.32
64340;BME280;50674;53.290;-9.080;2022-08-05T03:19:52;102419.44;;;15.13;79.11
64340;BME280;50674;53.290;-9.080;2022-08-05T03:22:18;102419.66;;;15.10;79.34
64340;BME280;50674;53.290;-9.080;2022-08-05T03:24:44;102420.72;;;15.08;78.72
64340;BME280;50674;53.290;-9.080;2022-08-05T03:27:10;102420.06;;;15.04;78.92
64340;BME280;50674;53.290;-9.080;2022-08-05T03:29:35;102427.47;;;15.00;80.11
64340;BME280;50674;53.290;-9.080;2022-08-05T03:32:02;102430.38;;;14.97;80.37
64340;BME280;50674;53.290;-9.080;2022-08-05T03:34:27;102430.47;;;14.96;79.28
64340;BME280;50674;53.290;-9.080;2022-08-05T03:36:53;102433.38;;;14.93;80.81
64340;BME280;50674;53.290;-9.080;2022-08-05T03:39:18;102428.97;;;14.92;78.83
64340;BME280;50674;53.290;-9.080;2022-08-05T03:41:43;102436.19;;;14.91;79.00
64340;BME280;50674;53.290;-9.080;2022-08-05T03:44:09;102431.09;;;14.87;79.12
64340;BME280;50674;53.290;-9.080;2022-08-05T03:46:34;102434.75;;;14.86;80.46
64340;BME280;50674;53.290;-9.080;2022-08-05T03:49:00;102432.19;;;14.84;79.20
64340;BME280;50674;53.290;-9.080;2022-08-05T03:51:32;102433.22;;;14.82;79.37
64340;BME280;50674;53.290;-9.080;2022-08-05T03:56:35;102437.63;;;14.83;81.34
64340;BME280;50674;53.290;-9.080;2022-08-05T03:59:03;102438.53;;;14.83;82.41
64340;BME280;50674;53.290;-9.080;2022-08-05T04:01:30;102432.06;;;14.86;82.04
64340;BME280;50674;53.290;-9.080;2022-08-05T04:03:57;102432.72;;;14.89;81.00
64340;BME280;50674;53.290;-9.080;2022-08-05T04:06:23;102437.13;;;14.90;81.38
64340;BME280;50674;53.290;-9.080;2022-08-05T04:08:49;102435.31;;;14.91;81.11
64340;BME280;50674;53.290;-9.080;2022-08-05T04:11:15;102433.50;;;14.91;80.68
64340;BME280;50674;53.290;-9.080;2022-08-05T04:13:41;102436.38;;;14.88;82.56
64340;BME280;50674;53.290;-9.080;2022-08-05T04:16:10;102429.38;;;14.86;79.95
64340;BME280;50674;53.290;-9.080;2022-08-05T04:18:36;102431.31;;;14.84;81.39
64340;BME280;50674;53.290;-9.080;2022-08-05T04:21:02;102434.09;;;14.82;80.53
64340;BME280;50674;53.290;-9.080;2022-08-05T04:23:28;102434.09;;;14.82;79.56
64340;BME280;50674;53.290;-9.080;2022-08-05T04:25:54;102438.63;;;14.82;80.69
64340;BME280;50674;53.290;-9.080;2022-08-05T04:28:19;102439.66;;;14.79;82.17
64340;BME280;50674;53.290;-9.080;2022-08-05T04:30:45;102443.13;;;14.81;81.23
64340;BME280;50674;53.290;-9.080;2022-08-05T04:33:11;102442.16;;;14.82;80.50
64340;BME280;50674;53.290;-9.080;2022-08-05T04:35:36;102442.06;;;14.84;81.63
64340;BME280;50674;53.290;-9.080;2022-08-05T04:38:02;102442.72;;;14.87;79.96
64340;BME280;50674;53.290;-9.080;2022-08-05T04:40:27;102452.31;;;14.91;81.09
64340;BME280;50674;53.290;-9.080;2022-08-05T04:42:52;102453.06;;;14.93;82.58
64340;BME280;50674;53.290;-9.080;2022-08-05T04:45:18;102457.25;;;14.97;81.53
64340;BME280;50674;53.290;-9.080;2022-08-05T04:47:43;102451.22;;;14.94;82.33
64340;BME280;50674;53.290;-9.080;2022-08-05T04:50:08;102459.00;;;14.98;83.08
64340;BME280;50674;53.290;-9.080;2022-08-05T04:52:34;102457.91;;;15.01;81.13
64340;BME280;50674;53.290;-9.080;2022-08-05T04:55:00;102456.75;;;15.05;81.81
64340;BME280;50674;53.290;-9.080;2022-08-05T04:57:25;102468.47;;;15.04;83.70
64340;BME280;50674;53.290;-9.080;2022-08-05T04:59:50;102461.25;;;15.05;82.67
64340;BME280;50674;53.290;-9.080;2022-08-05T05:02:16;102456.75;;;15.05;81.83
64340;BME280;50674;53.290;-9.080;2022-08-05T05:04:41;102460.59;;;15.01;83.89
64340;BME280;50674;53.290;-9.080;2022-08-05T05:07:07;102466.63;;;15.05;82.36
64340;BME280;50674;53.290;-9.080;2022-08-05T05:09:32;102461.19;;;15.06;80.75
64340;BME280;50674;53.290;-9.080;2022-08-05T05:11:57;102458.38;;;15.08;81.34
64340;BME280;50674;53.290;-9.080;2022-08-05T05:14:23;102469.78;;;15.11;81.29
64340;BME280;50674;53.290;-9.080;2022-08-05T05:16:48;102472.28;;;15.14;82.13
64340;BME280;50674;53.290;-9.080;2022-08-05T05:19:14;102470.31;;;15.16;83.13
64340;BME280;50674;53.290;-9.080;2022-08-05T05:21:39;102475.50;;;15.19;82.34
64340;BME280;50674;53.290;-9.080;2022-08-05T05:24:05;102475.28;;;15.22;81.96
64340;BME280;50674;53.290;-9.080;2022-08-05T05:26:30;102476.81;;;15.27;80.77
64340;BME280;50674;53.290;-9.080;2022-08-05T05:28:55;102483.69;;;15.31;82.22
64340;BME280;50674;53.290;-9.080;2022-08-05T05:31:21;102479.09;;;15.33;81.47
64340;BME280;50674;53.290;-9.080;2022-08-05T05:33:46;102491.38;;;15.37;82.19
64340;BME280;50674;53.290;-9.080;2022-08-05T05:36:11;102493.72;;;15.41;81.52
64340;BME280;50674;53.290;-9.080;2022-08-05T05:38:37;102495.34;;;15.44;83.71
64340;BME280;50674;53.290;-9.080;2022-08-05T05:41:02;102499.44;;;15.49;81.64
64340;BME280;50674;53.290;-9.080;2022-08-05T05:43:27;102501.94;;;15.53;80.25
64340;BME280;50674;53.290;-9.080;2022-08-05T05:45:53;102499.03;;;15.56;80.37
64340;BME280;50674;53.290;-9.080;2022-08-05T05:48:18;102503.22;;;15.60;80.20
64340;BME280;50674;53.290;-9.080;2022-08-05T05:50:44;102514.84;;;15.60;82.91
64340;BME280;50674;53.290;-9.080;2022-08-05T05:53:09;102513.91;;;15.61;81.22
64340;BME280;50674;53.290;-9.080;2022-08-05T05:55:35;102526.22;;;15.65;81.84
64340;BME280;50674;53.290;-9.080;2022-08-05T05:58:01;102527.94;;;15.66;83.30
64340;BME280;50674;53.290;-9.080;2022-08-05T06:00:26;102522.34;;;15.69;80.07
64340;BME280;50674;53.290;-9.080;2022-08-05T06:02:51;102522.88;;;15.75;81.75
64340;BME280;50674;53.290;-9.080;2022-08-05T06:05:17;102519.84;;;15.79;81.52
64340;BME280;50674;53.290;-9.080;2022-08-05T06:07:43;102522.34;;;15.82;81.19
64340;BME280;50674;53.290;-9.080;2022-08-05T06:10:09;102528.38;;;15.86;81.83
64340;BME280;50674;53.290;-9.080;2022-08-05T06:12:35;102529.00;;;15.89;80.48
64340;BME280;50674;53.290;-9.080;2022-08-05T06:15:01;102532.34;;;15.93;80.83
64340;BME280;50674;53.290;-9.080;2022-08-05T06:17:26;102534.84;;;15.96;81.01
64340;BME280;50674;53.290;-9.080;2022-08-05T06:19:52;102534.63;;;15.99;81.63
64340;BME280;50674;53.290;-9.080;2022-08-05T06:22:23;102523.66;;;16.02;80.47
64340;BME280;50674;53.290;-9.080;2022-08-05T06:24:49;102523.31;;;16.07;80.75
64340;BME280;50674;53.290;-9.080;2022-08-05T06:27:15;102524.69;;;16.12;79.75
64340;BME280;50674;53.290;-9.080;2022-08-05T06:29:40;102528.03;;;16.16;79.40
64340;BME280;50674;53.290;-9.080;2022-08-05T06:32:05;102527.94;;;16.17;79.59
64340;BME280;50674;53.290;-9.080;2022-08-05T06:34:31;102537.72;;;16.18;79.06
64340;BME280;50674;53.290;-9.080;2022-08-05T06:36:56;102541.28;;;16.19;79.76
64340;BME280;50674;53.290;-9.080;2022-08-05T06:39:22;102539.44;;;16.19;80.36
64340;BME280;50674;53.290;-9.080;2022-08-05T06:41:48;102542.78;;;16.23;81.28
64340;BME280;50674;53.290;-9.080;2022-08-05T06:44:13;102541.72;;;16.26;79.67
64340;BME280;50674;53.290;-9.080;2022-08-05T06:46:39;102544.28;;;16.27;79.47
64340;BME280;50674;53.290;-9.080;2022-08-05T06:49:04;102554.00;;;16.30;80.00
64340;BME280;50674;53.290;-9.080;2022-08-05T06:51:29;102550.44;;;16.29;81.35
64340;BME280;50674;53.290;-9.080;2022-08-05T06:53:55;102563.50;;;16.35;81.66
64340;BME280;50674;53.290;-9.080;2022-08-05T06:56:21;102562.81;;;16.44;80.22
64340;BME280;50674;53.290;-9.080;2022-08-05T06:58:46;102568.41;;;16.54;80.46
64340;BME280;50674;53.290;-9.080;2022-08-05T07:01:11;102572.16;;;16.64;80.79
64340;BME280;50674;53.290;-9.080;2022-08-05T07:03:37;102574.22;;;16.74;80.16
64340;BME280;50674;53.290;-9.080;2022-08-05T07:06:02;102583.38;;;16.84;78.85
64340;BME280;50674;53.290;-9.080;2022-08-05T07:08:28;102582.03;;;16.89;80.10
64340;BME280;50674;53.290;-9.080;2022-08-05T07:10:54;102585.50;;;16.91;78.72
64340;BME280;50674;53.290;-9.080;2022-08-05T07:13:20;102575.84;;;17.00;77.96
64340;BME280;50674;53.290;-9.080;2022-08-05T07:16:05;102583.72;;;17.03;77.73
64340;BME280;50674;53.290;-9.080;2022-08-05T07:18:49;102581.03;;;17.03;77.33
64340;BME280;50674;53.290;-9.080;2022-08-05T07:21:14;102587.69;;;17.10;77.16
64340;BME280;50674;53.290;-9.080;2022-08-05T07:23:40;102596.09;;;17.18;77.12
64340;BME280;50674;53.290;-9.080;2022-08-05T07:26:06;102587.53;;;17.25;77.42
64340;BME280;50674;53.290;-9.080;2022-08-05T07:28:31;102587.19;;;17.29;77.84
64340;BME280;50674;53.290;-9.080;2022-08-05T07:30:57;102592.13;;;17.35;76.31
64340;BME280;50674;53.290;-9.080;2022-08-05T07:33:22;102594.97;;;17.45;77.15
64340;BME280;50674;53.290;-9.080;2022-08-05T07:35:49;102594.38;;;17.53;76.53
64340;BME280;50674;53.290;-9.080;2022-08-05T07:38:16;102595.78;;;17.58;77.81
64340;BME280;50674;53.290;-9.080;2022-08-05T07:40:42;102586.69;;;17.59;75.86
64340;BME280;50674;53.290;-9.080;2022-08-05T07:43:08;102591.97;;;17.61;77.25
64340;BME280;50674;53.290;-9.080;2022-08-05T07:45:33;102599.47;;;17.69;76.28
64340;BME280;50674;53.290;-9.080;2022-08-05T07:48:19;102602.81;;;17.72;75.56
64340;BME280;50674;53.290;-9.080;2022-08-05T07:50:45;102605.84;;;17.80;75.65
64340;BME280;50674;53.290;-9.080;2022-08-05T07:53:12;102608.41;;;17.82;75.24
64340;BME280;50674;53.290;-9.080;2022-08-05T07:55:37;102610.88;;;17.85;75.10
64340;BME280;50674;53.290;-9.080;2022-08-05T07:58:03;102610.63;;;17.88;74.48
64340;BME280;50674;53.290;-9.080;2022-08-05T08:00:29;102610.41;;;17.91;74.72
64340;BME280;50674;53.290;-9.080;2022-08-05T08:02:54;102616.41;;;17.95;74.78
64340;BME280;50674;53.290;-9.080;2022-08-05T08:05:19;102622.19;;;18.01;74.52
64340;BME280;50674;53.290;-9.080;2022-08-05T08:07:45;102620.13;;;18.05;74.21
64340;BME280;50674;53.290;-9.080;2022-08-05T08:10:12;102635.38;;;18.06;74.78
64340;BME280;50674;53.290;-9.080;2022-08-05T08:12:37;102624.66;;;18.04;73.63
64340;BME280;50674;53.290;-9.080;2022-08-05T08:15:05;102640.88;;;18.04;74.22
64340;BME280;50674;53.290;-9.080;2022-08-05T08:17:31;102640.78;;;18.06;74.16
64340;BME280;50674;53.290;-9.080;2022-08-05T08:19:57;102645.06;;;18.08;74.20
64340;BME280;50674;53.290;-9.080;2022-08-05T08:22:25;102644.44;;;18.05;73.93
64340;BME280;50674;53.290;-9.080;2022-08-05T08:24:51;102650.09;;;18.02;71.52
64340;BME280;50674;53.290;-9.080;2022-08-05T08:27:17;102653.19;;;18.08;72.02
64340;BME280;50674;53.290;-9.080;2022-08-05T08:29:42;102656.91;;;18.19;71.90
64340;BME280;50674;53.290;-9.080;2022-08-05T08:32:08;102649.53;;;18.21;71.94
64340;BME280;50674;53.290;-9.080;2022-08-05T08:34:33;102648.19;;;18.26;71.71
64340;BME280;50674;53.290;-9.080;2022-08-05T08:36:59;102652.88;;;18.35;71.39
64340;BME280;50674;53.290;-9.080;2022-08-05T08:39:24;102645.13;;;18.42;70.88
64340;BME280;50674;53.290;-9.080;2022-08-05T08:41:56;102651.78;;;18.60;69.75
64340;BME280;50674;53.290;-9.080;2022-08-05T08:44:24;102651.06;;;18.70;69.06
64340;BME280;50674;53.290;-9.080;2022-08-05T08:46:53;102653.28;;;18.76;69.35
64340;BME280;50674;53.290;-9.080;2022-08-05T08:49:20;102661.06;;;18.80;68.43
64340;BME280;50674;53.290;-9.080;2022-08-05T08:51:48;102659.19;;;18.81;68.09
64340;BME280;50674;53.290;-9.080;2022-08-05T08:54:18;102661.16;;;18.79;68.18
64340;BME280;50674;53.290;-9.080;2022-08-05T08:56:44;102664.69;;;18.68;68.27
64340;BME280;50674;53.290;-9.080;2022-08-05T08:59:10;102665.06;;;18.52;67.91
64340;BME280;50674;53.290;-9.080;2022-08-05T09:01:35;102668.84;;;18.50;67.28
64340;BME280;50674;53.290;-9.080;2022-08-05T09:04:01;102666.88;;;18.41;68.88
64340;BME280;50674;53.290;-9.080;2022-08-05T09:06:27;102668.97;;;18.37;68.29
64340;BME280;50674;53.290;-9.080;2022-08-05T09:08:53;102671.81;;;18.35;68.54
64340;BME280;50674;53.290;-9.080;2022-08-05T09:11:19;102686.19;;;18.36;68.26
64340;BME280;50674;53.290;-9.080;2022-08-05T09:13:45;102682.50;;;18.37;68.35
64340;BME280;50674;53.290;-9.080;2022-08-05T09:16:11;102692.09;;;18.41;67.99
64340;BME280;50674;53.290;-9.080;2022-08-05T09:18:37;102690.38;;;18.40;68.57
64340;BME280;50674;53.290;-9.080;2022-08-05T09:21:03;102693.94;;;18.41;68.13
64340;BME280;50674;53.290;-9.080;2022-08-05T09:23:29;102693.47;;;18.47;67.16
64340;BME280;50674;53.290;-9.080;2022-08-05T09:26:07;102699.97;;;18.55;65.86
64340;BME280;50674;53.290;-9.080;2022-08-05T09:28:33;102701.69;;;18.68;65.44
64340;BME280;50674;53.290;-9.080;2022-08-05T09:33:30;102700.03;;;19.00;63.83
64340;BME280;50674;53.290;-9.080;2022-08-05T09:36:00;102703.34;;;19.15;63.94
64340;BME280;50674;53.290;-9.080;2022-08-05T09:38:26;102708.13;;;19.23;59.57
64340;BME280;50674;53.290;-9.080;2022-08-05T09:40:52;102696.03;;;19.38;63.01
64340;BME280;50674;53.290;-9.080;2022-08-05T09:43:34;102707.56;;;19.51;62.25
64340;BME280;50674;53.290;-9.080;2022-08-05T09:46:01;102710.50;;;19.59;62.26
64340;BME280;50674;53.290;-9.080;2022-08-05T09:48:28;102716.91;;;19.70;62.03
64340;BME280;50674;53.290;-9.080;2022-08-05T09:50:58;102707.00;;;19.80;60.98
64340;BME280;50674;53.290;-9.080;2022-08-05T09:53:24;102708.69;;;19.92;61.17
64340;BME280;50674;53.290;-9.080;2022-08-05T09:55:51;102711.00;;;19.97;59.18
64340;BME280;50674;53.290;-9.080;2022-08-05T09:58:17;102702.69;;;20.10;61.24
64340;BME280;50674;53.290;-9.080;2022-08-05T10:00:52;102695.28;;;20.12;57.48
64340;BME280;50674;53.290;-9.080;2022-08-05T10:03:17;102704.97;;;20.25;60.27
64340;BME280;50674;53.290;-9.080;2022-08-05T10:05:43;102708.38;;;20.27;57.35
64340;BME280;50674;53.290;-9.080;2022-08-05T10:08:09;102711.84;;;20.29;57.98
64340;BME280;50674;53.290;-9.080;2022-08-05T10:13:09;102708.91;;;20.42;58.60
64340;BME280;50674;53.290;-9.080;2022-08-05T10:15:36;102705.66;;;20.48;58.86
64340;BME280;50674;53.290;-9.080;2022-08-05T10:18:10;102704.16;;;20.56;57.90
64340;BME280;50674;53.290;-9.080;2022-08-05T10:20:40;102703.34;;;20.65;57.85
64340;BME280;50674;53.290;-9.080;2022-08-05T10:23:08;102701.09;;;20.70;59.81
64340;BME280;50674;53.290;-9.080;2022-08-05T10:25:34;102706.53;;;20.70;58.25
64340;BME280;50674;53.290;-9.080;2022-08-05T10:28:00;102699.66;;;20.66;58.88
64340;BME280;50674;53.290;-9.080;2022-08-05T10:30:25;102704.34;;;20.64;59.40
64340;BME280;50674;53.290;-9.080;2022-08-05T10:32:51;102704.50;;;20.62;58.33
64340;BME280;50674;53.290;-9.080;2022-08-05T10:35:18;102709.00;;;20.73;58.03
64340;BME280;50674;53.290;-9.080;2022-08-05T10:37:45;102718.38;;;20.99;57.06
64340;BME280;50674;53.290;-9.080;2022-08-05T10:40:23;102721.06;;;21.30;56.27
64340;BME280;50674;53.290;-9.080;2022-08-05T10:42:51;102716.44;;;21.52;56.41
64340;BME280;50674;53.290;-9.080;2022-08-05T10:45:25;102721.16;;;21.69;56.61
64340;BME280;50674;53.290;-9.080;2022-08-05T10:47:51;102720.16;;;21.80;56.15
64340;BME280;50674;53.290;-9.080;2022-08-05T10:50:17;102716.59;;;22.08;54.26
64340;BME280;50674;53.290;-9.080;2022-08-05T10:52:44;102715.44;;;22.11;52.40
64340;BME280;50674;53.290;-9.080;2022-08-05T10:55:12;102727.19;;;22.02;53.05
64340;BME280;50674;53.290;-9.080;2022-08-05T10:57:39;102722.03;;;22.28;51.24
64340;BME280;50674;53.290;-9.080;2022-08-05T11:02:59;102714.66;;;23.14;51.52
64340;BME280;50674;53.290;-9.080;2022-08-05T11:05:24;102719.53;;;23.10;48.62
64340;BME280;50674;53.290;-9.080;2022-08-05T11:08:00;102723.72;;;22.95;52.93
64340;BME280;50674;53.290;-9.080;2022-08-05T11:10:30;102728.56;;;22.54;55.26
64340;BME280;50674;53.290;-9.080;2022-08-05T11:12:57;102735.81;;;22.26;55.85
64340;BME280;50674;53.290;-9.080;2022-08-05T11:15:24;102743.09;;;21.96;56.09
64340;BME280;50674;53.290;-9.080;2022-08-05T11:17:53;102745.50;;;21.70;56.46
64340;BME280;50674;53.290;-9.080;2022-08-05T11:33:24;102756.72;;;21.46;54.56
64340;BME280;50674;53.290;-9.080;2022-08-05T11:35:51;102762.69;;;22.10;51.69
64340;BME280;50674;53.290;-9.080;2022-08-05T11:38:17;102749.38;;;22.45;48.42
64340;BME280;50674;53.290;-9.080;2022-08-05T11:40:56;102756.28;;;22.87;52.23
64340;BME280;50674;53.290;-9.080;2022-08-05T11:43:22;102750.13;;;23.50;50.84
64340;BME280;50674;53.290;-9.080;2022-08-05T11:45:48;102744.59;;;24.23;48.18
64340;BME280;50674;53.290;-9.080;2022-08-05T11:48:13;102751.94;;;24.92;40.93
64340;BME280;50674;53.290;-9.080;2022-08-05T11:50:39;102743.81;;;25.51;40.71
64340;BME280;50674;53.290;-9.080;2022-08-05T11:53:05;102740.88;;;26.19;40.50
64340;BME280;50674;53.290;-9.080;2022-08-05T11:55:31;102738.88;;;26.93;42.92
64340;BME280;50674;53.290;-9.080;2022-08-05T11:57:57;102739.63;;;27.26;39.49
64340;BME280;50674;53.290;-9.080;2022-08-05T12:00:29;102752.53;;;27.80;42.64
64340;BME280;50674;53.290;-9.080;2022-08-05T12:02:55;102746.94;;;28.19;38.02
64340;BME280;50674;53.290;-9.080;2022-08-05T12:05:25;102752.34;;;28.65;39.65
64340;BME280;50674;53.290;-9.080;2022-08-05T12:07:51;102747.72;;;29.10;39.46
64340;BME280;50674;53.290;-9.080;2022-08-05T12:10:17;102738.47;;;29.11;38.74
64340;BME280;50674;53.290;-9.080;2022-08-05T12:12:44;102737.13;;;28.92;33.47
64340;BME280;50674;53.290;-9.080;2022-08-05T12:15:19;102743.16;;;29.32;33.07
64340;BME280;50674;53.290;-9.080;2022-08-05T12:17:44;102741.28;;;29.69;35.23
64340;BME280;50674;53.290;-9.080;2022-08-05T12:20:10;102750.22;;;29.93;36.24
64340;BME280;50674;53.290;-9.080;2022-08-05T12:22:37;102748.97;;;30.17;34.57
64340;BME280;50674;53.290;-9.080;2022-08-05T12:25:03;102742.31;;;30.11;29.07
64340;BME280;50674;53.290;-9.080;2022-08-05T12:27:29;102735.25;;;30.51;33.99
64340;BME280;50674;53.290;-9.080;2022-08-05T12:29:58;102728.59;;;30.39;33.01
64340;BME280;50674;53.290;-9.080;2022-08-05T12:32:25;102738.56;;;30.40;28.85
64340;BME280;50674;53.290;-9.080;2022-08-05T12:34:51;102737.34;;;30.21;27.23
64340;BME280;50674;53.290;-9.080;2022-08-05T12:37:17;102745.75;;;30.13;32.33
64340;BME280;50674;53.290;-9.080;2022-08-05T12:39:43;102751.06;;;29.93;28.92
64340;BME280;50674;53.290;-9.080;2022-08-05T12:42:10;102751.44;;;30.33;32.99
64340;BME280;50674;53.290;-9.080;2022-08-05T12:44:36;102749.34;;;30.35;29.11
64340;BME280;50674;53.290;-9.080;2022-08-05T12:47:02;102737.66;;;30.61;30.63
64340;BME280;50674;53.290;-9.080;2022-08-05T12:49:38;102744.69;;;30.64;27.88
64340;BME280;50674;53.290;-9.080;2022-08-05T12:52:10;102737.47;;;30.62;30.50
64340;BME280;50674;53.290;-9.080;2022-08-05T12:54:36;102753.59;;;30.66;31.48
64340;BME280;50674;53.290;-9.080;2022-08-05T12:57:03;102752.53;;;29.89;30.30
64340;BME280;50674;53.290;-9.080;2022-08-05T12:59:41;102753.50;;;29.30;32.83
64340;BME280;50674;53.290;-9.080;2022-08-05T13:02:08;102754.00;;;28.37;32.80
64340;BME280;50674;53.290;-9.080;2022-08-05T13:04:34;102754.81;;;27.77;35.10
64340;BME280;50674;53.290;-9.080;2022-08-05T13:07:01;102759.91;;;27.09;35.26
64340;BME280;50674;53.290;-9.080;2022-08-05T13:09:28;102768.44;;;26.26;35.62
64340;BME280;50674;53.290;-9.080;2022-08-05T13:12:04;102761.31;;;25.66;37.96
64340;BME280;50674;53.290;-9.080;2022-08-05T13:14:47;102765.94;;;25.23;41.43